Airfield :
LOGIN :

Register | Disclaimer

   EN    FR    IT 

 










Legend :    VFR   Marginal VFR   IFR   Intensive IFR   Very Intensive IFR
Visi :
Ceiling :
>= 8 km
>= 3000ft
5 to 8 km
1000 to 3000 ft
1500m to 5 km
500 to 1000 ft
800 to 1500m
200 to 500 ft
< 800m
< 200 ft
Symbols :   Thunderstorms  Fog  Heavy snow  Heavy precipitations  Wind > 20 kt
SIGMETs :     Misc.  Thunderstorms  Icing  Turbulence  Mountain Waves  Volcanic Ashes







- Airport Elevation : 26 ft
- IATA code : BIA
- Download approach charts


LFKB - Bastia

CURRENT METAR :
  • 210830Z AUTO 04005KT 360V070 9999 FEW100 BKN170 22/17 Q1012 NOSIG

EXPIRED METARs :
  • 210800Z AUTO 36004KT 320V050 9999 FEW100 22/16 Q1012 TEMPO SHRA FEW015 BKN030TCU
  • 210730Z AUTO 03004KT 360V060 9999 FEW100 SCT170 21/16 Q1012 TEMPO SHRA FEW015 BKN030TCU
  • 210700Z AUTO 01006KT 340V050 CAVOK 22/17 Q1012 TEMPO SHRA FEW015 BKN030TCU
  • 210630Z AUTO VRB03KT CAVOK 21/16 Q1012 TEMPO SHRA FEW015 BKN030TCU
  • 210600Z AUTO 21003KT CAVOK 18/15 Q1012 BECMG FEW020 SCT040TCU OVC080

TAF TAF LFKB
Valid from the 21 at 03:00 until the 22 at 03:00 UTC


210200Z 2103/2203 VRB05KT 9999 SCT080 BKN120
BECMG 2103/2106 FEW020 SCT040TCU OVC080
TEMPO 2108/2122 SHRA FEW015 BKN030TCU
PROB40
TEMPO 2113/2120 12012KT 4000 TSRA SCT020CB BKN030 TX23/2113Z TN15/2104Z
ATIS : +33 4 95 59 19 40
No reported NOTAMs for that airfield.



MET'MAP, your aeronautical weather chart ! - Copyright ORBIFLY December 2007 - Disclaimer

ORBIFLY MET'MAP TEAM :

Programming & Development : Alexandra Zaïnal
Concept & Development : Baudouin d'Aumeries
Co-Development & Prog : Marc-Olivier Méhu
Technical & hardware support : Manuel Goepfert

Contact : metmap@orbifly.com




SOURCES & CREDITS :

   NOAA